Time;durP1;ratioP1;P1;durP2;ratioP2;P2;SDS_P1;SDS_P2;PMS_P1;PMS_P2;Temp;Humidity;BMP_temperature;BMP_pressure;BME280_temperature;BME280_humidity;BME280_pressure;Samples;Min_cycle;Max_cycle;Signal;HPM_P1;HPM_P2
2023/12/18 00:00:10;;;;;;;3.27;2.03;;;;;;;;;;5060046;27;88417;-71
2023/12/18 00:02:38;;;;;;;3.77;2.13;;;;;;;;;;5061888;27;87757;-71
2023/12/18 00:05:08;;;;;;;2.17;1.97;;;;;;;;;;5061280;27;87624;-72
2023/12/18 00:07:36;;;;;;;3.00;2.20;;;;;;;;;;5061243;27;89761;-72
2023/12/18 00:10:06;;;;;;;2.50;1.90;;;;;;;;;;5060950;27;90230;-69
2023/12/18 00:12:34;;;;;;;3.00;2.07;;;;;;;;;;5060932;27;89791;-69
2023/12/18 00:15:06;;;;;;;3.47;2.47;;;;;;;;;;5061770;27;87705;-69
2023/12/18 00:17:37;;;;;;;3.00;2.17;;;;;;;;;;5059962;27;89719;-69
2023/12/18 00:20:06;;;;;;;4.30;1.73;;;;;;;;;;5058958;27;89001;-69
2023/12/18 00:22:34;;;;;;;5.73;3.00;;;;;;;;;;5059751;27;88901;-69
2023/12/18 00:25:04;;;;;;;5.57;3.27;;;;;;;;;;5068227;27;87783;-69
2023/12/18 00:27:32;;;;;;;4.90;2.87;;;;;;;;;;5073858;27;89666;-68
2023/12/18 00:30:01;;;;;;;4.23;3.43;;;;;;;;;;5075709;27;88348;-69
2023/12/18 00:32:31;;;;;;;8.73;3.80;;;;;;;;;;5062710;27;88874;-69
2023/12/18 00:35:01;;;;;;;9.63;4.37;;;;;;;;;;5052418;27;88038;-69
2023/12/18 00:37:29;;;;;;;6.13;4.10;;;;;;;;;;5062945;27;88552;-69
2023/12/18 00:39:58;;;;;;;7.67;4.20;;;;;;;;;;5063479;27;89084;-69
2023/12/18 00:42:26;;;;;;;8.27;4.83;;;;;;;;;;5063352;27;88948;-69
2023/12/18 00:44:54;;;;;;;9.87;5.43;;;;;;;;;;5064693;27;87730;-68
2023/12/18 00:47:23;;;;;;;9.60;5.77;;;;;;;;;;5051230;27;89842;-69
2023/12/18 00:49:51;;;;;;;9.60;6.13;;;;;;;;;;5053672;27;89205;-69
2023/12/18 00:52:21;;;;;;;9.53;5.77;;;;;;;;;;5065095;27;88967;-69
2023/12/18 00:54:49;;;;;;;10.00;6.33;;;;;;;;;;5075364;27;87618;-69
2023/12/18 00:57:18;;;;;;;10.07;6.17;;;;;;;;;;5074544;27;89852;-69
2023/12/18 00:59:47;;;;;;;13.87;6.73;;;;;;;;;;5072982;27;90025;-69
2023/12/18 01:02:15;;;;;;;9.70;6.07;;;;;;;;;;5065088;27;89812;-69
2023/12/18 01:04:44;;;;;;;9.63;6.13;;;;;;;;;;5057240;27;87669;-69
2023/12/18 01:07:14;;;;;;;10.40;6.00;;;;;;;;;;5059585;27;89838;-69
2023/12/18 01:09:44;;;;;;;10.07;6.83;;;;;;;;;;5060013;27;89026;-68
2023/12/18 01:12:14;;;;;;;10.07;6.87;;;;;;;;;;5060118;27;88993;-69
2023/12/18 01:14:44;;;;;;;11.53;6.93;;;;;;;;;;5060693;27;88807;-69
2023/12/18 01:17:13;;;;;;;12.93;7.33;;;;;;;;;;5061037;27;89685;-69
2023/12/18 01:19:46;;;;;;;10.43;6.43;;;;;;;;;;5059133;27;89155;-68
2023/12/18 01:22:15;;;;;;;10.53;5.37;;;;;;;;;;5053004;27;88974;-70
2023/12/18 01:24:44;;;;;;;11.20;5.83;;;;;;;;;;5060411;27;87915;-68
2023/12/18 01:27:13;;;;;;;8.83;5.93;;;;;;;;;;5060206;27;87962;-69
2023/12/18 01:29:41;;;;;;;13.47;6.10;;;;;;;;;;5060367;27;89192;-68
2023/12/18 01:32:10;;;;;;;9.73;5.70;;;;;;;;;;5059779;27;88814;-68
2023/12/18 01:34:38;;;;;;;9.30;6.53;;;;;;;;;;5060359;27;88314;-68
2023/12/18 01:37:06;;;;;;;11.80;5.90;;;;;;;;;;5059812;27;89607;-69
2023/12/18 01:39:36;;;;;;;14.40;7.73;;;;;;;;;;5059787;27;89063;-68
2023/12/18 01:42:06;;;;;;;8.60;6.80;;;;;;;;;;5059906;27;88851;-68
2023/12/18 01:44:35;;;;;;;11.00;6.20;;;;;;;;;;5060573;27;87617;-68
2023/12/18 01:47:04;;;;;;;12.00;7.37;;;;;;;;;;5059727;27;89628;-68
2023/12/18 01:49:32;;;;;;;8.60;6.17;;;;;;;;;;5059854;27;90045;-68
2023/12/18 01:52:02;;;;;;;11.60;6.60;;;;;;;;;;5059515;27;89688;-68
2023/12/18 01:54:30;;;;;;;10.37;6.87;;;;;;;;;;5062545;27;87656;-68
2023/12/18 01:56:59;;;;;;;10.83;5.97;;;;;;;;;;5063400;27;89892;-68
2023/12/18 01:59:28;;;;;;;8.43;5.50;;;;;;;;;;5063010;27;89250;-68
2023/12/18 02:01:57;;;;;;;10.83;6.13;;;;;;;;;;5062323;27;89256;-68
2023/12/18 02:04:26;;;;;;;8.43;5.60;;;;;;;;;;5064131;27;87665;-68
2023/12/18 02:06:54;;;;;;;11.27;6.53;;;;;;;;;;5063364;27;89701;-68
2023/12/18 02:09:24;;;;;;;8.53;6.00;;;;;;;;;;5063085;27;89040;-68
2023/12/18 02:11:53;;;;;;;9.67;6.13;;;;;;;;;;5061950;27;89669;-68
2023/12/18 02:14:26;;;;;;;7.83;6.20;;;;;;;;;;5063595;27;87938;-68
2023/12/18 02:16:55;;;;;;;8.40;5.87;;;;;;;;;;5063738;27;89923;-67
2023/12/18 02:19:23;;;;;;;9.17;5.03;;;;;;;;;;5063612;27;89041;-67
2023/12/18 02:21:53;;;;;;;8.37;5.97;;;;;;;;;;5062757;27;88839;-67
2023/12/18 02:24:23;;;;;;;10.33;6.33;;;;;;;;;;5062593;27;87631;-68
2023/12/18 02:26:52;;;;;;;8.10;4.80;;;;;;;;;;5063279;27;89367;-68
2023/12/18 02:29:21;;;;;;;9.07;6.43;;;;;;;;;;5062944;27;90334;-67
2023/12/18 02:31:49;;;;;;;10.03;5.97;;;;;;;;;;5063484;27;88755;-67
2023/12/18 02:34:17;;;;;;;9.23;6.10;;;;;;;;;;5062879;27;87702;-67
2023/12/18 02:36:48;;;;;;;7.70;5.20;;;;;;;;;;5062554;27;89603;-68
2023/12/18 02:39:16;;;;;;;13.23;5.27;;;;;;;;;;5061960;27;90066;-68
2023/12/18 02:41:46;;;;;;;11.10;6.37;;;;;;;;;;5062845;27;90164;-69
2023/12/18 02:44:16;;;;;;;9.27;5.53;;;;;;;;;;5045357;27;87424;-69
2023/12/18 02:46:46;;;;;;;8.47;5.73;;;;;;;;;;5049327;27;89712;-68
2023/12/18 02:49:15;;;;;;;7.47;5.00;;;;;;;;;;5059157;27;89207;-68
2023/12/18 02:51:44;;;;;;;8.33;6.03;;;;;;;;;;5058627;27;88788;-69
2023/12/18 02:54:12;;;;;;;10.97;5.67;;;;;;;;;;5059568;27;87647;-69
2023/12/18 02:56:41;;;;;;;8.90;5.67;;;;;;;;;;5059140;27;87510;-68
2023/12/18 02:59:12;;;;;;;9.60;6.10;;;;;;;;;;5059865;27;87998;-69
2023/12/18 03:01:40;;;;;;;8.70;6.27;;;;;;;;;;5059856;27;87845;-68
2023/12/18 03:04:09;;;;;;;9.63;5.50;;;;;;;;;;5058906;27;87908;-68
2023/12/18 03:06:37;;;;;;;7.80;5.23;;;;;;;;;;5058289;27;89961;-70
2023/12/18 03:09:05;;;;;;;8.13;6.03;;;;;;;;;;5058602;27;89134;-69
2023/12/18 03:11:34;;;;;;;11.13;6.00;;;;;;;;;;5059390;27;88797;-70
2023/12/18 03:14:02;;;;;;;11.17;6.00;;;;;;;;;;5059093;27;89169;-70
2023/12/18 03:16:32;;;;;;;8.77;5.70;;;;;;;;;;5059577;27;89680;-69
2023/12/18 03:19:00;;;;;;;10.40;5.90;;;;;;;;;;5058777;27;91450;-69
2023/12/18 03:21:29;;;;;;;11.07;6.50;;;;;;;;;;5059608;27;87361;-70
2023/12/18 03:23:57;;;;;;;8.73;5.80;;;;;;;;;;5058909;27;87663;-69
2023/12/18 03:26:26;;;;;;;10.17;6.57;;;;;;;;;;5059627;27;88770;-70
2023/12/18 03:28:54;;;;;;;9.87;5.70;;;;;;;;;;5058438;27;90476;-69
2023/12/18 03:31:23;;;;;;;9.57;7.13;;;;;;;;;;5058855;27;88731;-69
2023/12/18 03:33:53;;;;;;;10.03;5.77;;;;;;;;;;5059311;27;87725;-68
2023/12/18 03:36:22;;;;;;;9.47;6.03;;;;;;;;;;5058419;27;88558;-70
2023/12/18 03:38:51;;;;;;;8.83;5.57;;;;;;;;;;5057666;27;89417;-69
2023/12/18 03:41:19;;;;;;;8.83;6.30;;;;;;;;;;5058352;27;90920;-69
2023/12/18 03:43:47;;;;;;;8.10;5.27;;;;;;;;;;5057595;27;87666;-69
2023/12/18 03:46:16;;;;;;;5.73;4.07;;;;;;;;;;5056924;27;89640;-69
2023/12/18 03:48:44;;;;;;;11.50;5.87;;;;;;;;;;5058052;27;89332;-70
2023/12/18 03:51:14;;;;;;;10.97;5.33;;;;;;;;;;5056143;27;87853;-69
2023/12/18 03:53:43;;;;;;;8.67;5.53;;;;;;;;;;5056827;27;88220;-68
2023/12/18 03:56:11;;;;;;;7.43;5.13;;;;;;;;;;5054904;27;89596;-69
2023/12/18 03:58:39;;;;;;;7.60;5.13;;;;;;;;;;5058613;27;87583;-70
2023/12/18 04:01:08;;;;;;;7.00;5.43;;;;;;;;;;5058588;27;88783;-70
2023/12/18 04:03:36;;;;;;;9.43;5.83;;;;;;;;;;5053332;27;88230;-70
2023/12/18 04:06:08;;;;;;;8.10;5.47;;;;;;;;;;5057509;27;92760;-70
2023/12/18 04:08:39;;;;;;;7.90;5.03;;;;;;;;;;5058381;27;89244;-70
2023/12/18 04:11:14;;;;;;;6.50;4.97;;;;;;;;;;5058527;27;88636;-70
2023/12/18 04:13:43;;;;;;;9.03;5.80;;;;;;;;;;5059961;27;87605;-70
2023/12/18 04:16:11;;;;;;;6.27;4.30;;;;;;;;;;5059074;27;89649;-70
2023/12/18 04:18:39;;;;;;;9.43;5.20;;;;;;;;;;5058721;27;90045;-70
2023/12/18 04:21:08;;;;;;;7.33;4.63;;;;;;;;;;5060201;27;91276;-70
2023/12/18 04:23:38;;;;;;;6.10;4.17;;;;;;;;;;5062469;27;87703;-69
2023/12/18 04:26:06;;;;;;;6.23;4.10;;;;;;;;;;5061016;27;88603;-69
2023/12/18 04:28:34;;;;;;;10.73;5.67;;;;;;;;;;5061111;27;89098;-69
2023/12/18 04:31:06;;;;;;;9.00;4.80;;;;;;;;;;5061466;27;88799;-70
2023/12/18 04:33:34;;;;;;;6.13;4.83;;;;;;;;;;5061215;27;88686;-69
2023/12/18 04:36:03;;;;;;;8.27;5.47;;;;;;;;;;5061350;27;89801;-69
2023/12/18 04:38:34;;;;;;;7.80;4.30;;;;;;;;;;5060095;27;89181;-69
2023/12/18 04:41:05;;;;;;;6.73;3.97;;;;;;;;;;5061231;27;88776;-70
2023/12/18 04:43:33;;;;;;;5.20;4.30;;;;;;;;;;5060897;27;87836;-70
2023/12/18 04:46:01;;;;;;;11.77;5.23;;;;;;;;;;5061465;27;89636;-70
2023/12/18 04:48:30;;;;;;;7.23;4.80;;;;;;;;;;5060415;27;87899;-70
2023/12/18 04:50:58;;;;;;;7.13;4.13;;;;;;;;;;5060553;27;88706;-70
2023/12/18 04:53:26;;;;;;;9.23;5.33;;;;;;;;;;5057601;27;87600;-69
2023/12/18 04:55:58;;;;;;;5.70;3.93;;;;;;;;;;5060511;27;90184;-70
2023/12/18 04:58:30;;;;;;;6.17;4.43;;;;;;;;;;5060678;27;89052;-70
2023/12/18 05:01:00;;;;;;;7.37;4.30;;;;;;;;;;5060448;27;87702;-70
2023/12/18 05:03:28;;;;;;;5.93;4.60;;;;;;;;;;5060918;27;87622;-70
2023/12/18 05:05:57;;;;;;;7.27;4.27;;;;;;;;;;5055732;27;89661;-70
2023/12/18 05:08:25;;;;;;;6.27;4.00;;;;;;;;;;5060367;27;89974;-70
2023/12/18 05:10:53;;;;;;;8.03;4.17;;;;;;;;;;5059975;27;89902;-70
2023/12/18 05:13:23;;;;;;;7.83;3.70;;;;;;;;;;5060490;27;87631;-69
2023/12/18 05:15:54;;;;;;;6.40;3.53;;;;;;;;;;5060508;27;89737;-70
2023/12/18 05:18:22;;;;;;;6.17;3.73;;;;;;;;;;5060448;27;88988;-69
2023/12/18 05:20:53;;;;;;;4.47;3.33;;;;;;;;;;5058387;27;87921;-70
2023/12/18 05:23:21;;;;;;;4.50;3.90;;;;;;;;;;5058850;27;87534;-69
2023/12/18 05:25:49;;;;;;;9.63;4.80;;;;;;;;;;5059521;27;89697;-70
2023/12/18 05:28:18;;;;;;;9.67;4.23;;;;;;;;;;5060785;27;89205;-70
2023/12/18 05:30:47;;;;;;;8.50;5.33;;;;;;;;;;5063322;27;88790;-70
2023/12/18 05:33:17;;;;;;;4.57;3.57;;;;;;;;;;5062285;27;88937;-70
2023/12/18 05:35:46;;;;;;;6.00;4.10;;;;;;;;;;5060987;27;89639;-70
2023/12/18 05:38:16;;;;;;;3.67;3.17;;;;;;;;;;5063206;27;89174;-70
2023/12/18 05:40:44;;;;;;;8.13;4.70;;;;;;;;;;5060561;27;88883;-70
2023/12/18 05:43:12;;;;;;;8.63;4.17;;;;;;;;;;5063195;27;88365;-70
2023/12/18 05:45:40;;;;;;;5.67;3.60;;;;;;;;;;5063014;27;89554;-69
2023/12/18 05:48:09;;;;;;;5.70;3.80;;;;;;;;;;5063621;27;89203;-69
2023/12/18 05:50:39;;;;;;;11.10;3.97;;;;;;;;;;5063448;27;88777;-70
2023/12/18 05:53:09;;;;;;;4.67;3.10;;;;;;;;;;5062731;27;87722;-69
2023/12/18 05:55:39;;;;;;;5.73;3.17;;;;;;;;;;5062978;27;89633;-70
2023/12/18 05:58:07;;;;;;;5.83;3.50;;;;;;;;;;5061397;27;90065;-70
2023/12/18 06:00:36;;;;;;;5.70;3.30;;;;;;;;;;5062479;27;89708;-69
2023/12/18 06:03:04;;;;;;;4.73;3.47;;;;;;;;;;5062858;27;87586;-70
2023/12/18 06:05:33;;;;;;;4.77;3.17;;;;;;;;;;5061765;27;89714;-70
2023/12/18 06:08:02;;;;;;;5.10;3.13;;;;;;;;;;5062912;27;91591;-70
2023/12/18 06:10:32;;;;;;;5.67;3.20;;;;;;;;;;5062958;27;88772;-69
2023/12/18 06:13:00;;;;;;;6.57;3.60;;;;;;;;;;5063088;27;87663;-69
2023/12/18 06:15:28;;;;;;;5.97;4.10;;;;;;;;;;5061894;27;89671;-69
2023/12/18 06:17:57;;;;;;;5.43;3.10;;;;;;;;;;5062350;27;89301;-70
2023/12/18 06:20:25;;;;;;;3.63;2.60;;;;;;;;;;5061725;27;88975;-70
2023/12/18 06:22:55;;;;;;;4.40;3.13;;;;;;;;;;5062193;27;88109;-70
2023/12/18 06:25:24;;;;;;;4.10;2.80;;;;;;;;;;5062368;27;89723;-69
2023/12/18 06:27:54;;;;;;;4.97;3.77;;;;;;;;;;5061991;27;89141;-69
2023/12/18 06:30:24;;;;;;;3.93;2.90;;;;;;;;;;5061836;27;88918;-69
2023/12/18 06:32:54;;;;;;;4.40;3.00;;;;;;;;;;5062188;27;88145;-69
2023/12/18 06:35:24;;;;;;;4.43;2.90;;;;;;;;;;5059537;27;89703;-69
2023/12/18 06:37:53;;;;;;;6.20;3.13;;;;;;;;;;5061928;27;87873;-70
2023/12/18 06:40:22;;;;;;;4.10;3.17;;;;;;;;;;5062077;27;88887;-70
2023/12/18 06:42:53;;;;;;;4.33;3.47;;;;;;;;;;5062349;27;87664;-70
2023/12/18 06:45:22;;;;;;;4.80;3.03;;;;;;;;;;5060867;27;89995;-70
2023/12/18 06:47:51;;;;;;;4.50;2.43;;;;;;;;;;5063682;27;90491;-69
2023/12/18 06:50:20;;;;;;;4.63;2.60;;;;;;;;;;5063745;27;89984;-69
2023/12/18 06:52:49;;;;;;;6.10;3.33;;;;;;;;;;5061634;27;88108;-69
2023/12/18 06:55:19;;;;;;;3.70;2.60;;;;;;;;;;5061267;27;89662;-69
2023/12/18 06:57:47;;;;;;;2.53;2.13;;;;;;;;;;5061428;27;88002;-69
2023/12/18 07:00:17;;;;;;;3.90;2.87;;;;;;;;;;5060648;27;88454;-69
2023/12/18 07:02:50;;;;;;;3.00;2.20;;;;;;;;;;5058563;27;87433;-69
2023/12/18 07:05:19;;;;;;;4.27;2.77;;;;;;;;;;5061083;27;89799;-71
2023/12/18 07:07:48;;;;;;;3.23;2.67;;;;;;;;;;5061264;27;89119;-70
2023/12/18 07:10:16;;;;;;;3.67;2.50;;;;;;;;;;5061864;27;88746;-72
2023/12/18 07:12:46;;;;;;;4.33;2.83;;;;;;;;;;5061043;27;89245;-73
2023/12/18 07:15:15;;;;;;;3.80;2.57;;;;;;;;;;5058058;27;89472;-75
2023/12/18 07:17:46;;;;;;;3.40;2.17;;;;;;;;;;5058713;27;89169;-75
2023/12/18 07:20:15;;;;;;;4.00;2.70;;;;;;;;;;5061438;27;87901;-75
2023/12/18 07:22:45;;;;;;;2.93;2.37;;;;;;;;;;5058698;27;87501;-73
2023/12/18 07:25:13;;;;;;;4.93;2.93;;;;;;;;;;5061464;27;89740;-73
2023/12/18 07:27:42;;;;;;;2.87;2.13;;;;;;;;;;5061388;27;89596;-74
2023/12/18 07:30:11;;;;;;;3.40;2.33;;;;;;;;;;5061866;27;88715;-74
2023/12/18 07:32:39;;;;;;;3.80;1.83;;;;;;;;;;5060707;27;87722;-74
2023/12/18 07:35:14;;;;;;;3.57;2.17;;;;;;;;;;5061407;27;89702;-73
2023/12/18 07:37:45;;;;;;;2.50;2.17;;;;;;;;;;5060088;27;90209;-74
2023/12/18 07:40:13;;;;;;;2.57;2.03;;;;;;;;;;5062435;27;89773;-75
2023/12/18 07:42:42;;;;;;;3.80;2.40;;;;;;;;;;5061180;27;87639;-75
2023/12/18 07:45:12;;;;;;;3.77;2.17;;;;;;;;;;5061598;27;89622;-74
2023/12/18 07:47:41;;;;;;;2.97;2.40;;;;;;;;;;5058173;27;89369;-75
2023/12/18 07:50:12;;;;;;;2.47;2.03;;;;;;;;;;5060658;27;89033;-74
2023/12/18 07:52:40;;;;;;;3.10;1.83;;;;;;;;;;5058210;27;87505;-74
2023/12/18 07:55:09;;;;;;;2.57;1.87;;;;;;;;;;5060985;27;90025;-74
2023/12/18 07:57:40;;;;;;;7.10;2.77;;;;;;;;;;5058478;27;89273;-75
2023/12/18 08:00:09;;;;;;;1.70;1.60;;;;;;;;;;5060742;27;89073;-74
2023/12/18 08:02:37;;;;;;;2.60;2.33;;;;;;;;;;5060413;27;88338;-74
2023/12/18 08:05:06;;;;;;;3.67;2.07;;;;;;;;;;5060184;27;89940;-74
2023/12/18 08:07:36;;;;;;;4.03;2.07;;;;;;;;;;5061065;27;89835;-74
2023/12/18 08:10:05;;;;;;;3.47;2.57;;;;;;;;;;5060149;27;88813;-75
2023/12/18 08:12:33;;;;;;;4.83;2.30;;;;;;;;;;5062727;27;87853;-74
2023/12/18 08:15:02;;;;;;;4.03;2.23;;;;;;;;;;5063088;27;89684;-74
2023/12/18 08:17:30;;;;;;;2.70;2.00;;;;;;;;;;5060128;27;88743;-74
2023/12/18 08:19:58;;;;;;;2.93;1.90;;;;;;;;;;5060380;27;87915;-74
2023/12/18 08:22:27;;;;;;;3.40;2.50;;;;;;;;;;5061132;27;87642;-74
2023/12/18 08:24:57;;;;;;;4.13;2.53;;;;;;;;;;5059603;27;89648;-74
2023/12/18 08:27:25;;;;;;;3.27;2.67;;;;;;;;;;5060166;27;90125;-71
2023/12/18 08:29:54;;;;;;;4.80;2.57;;;;;;;;;;5060449;27;89827;-74
2023/12/18 08:32:22;;;;;;;3.83;2.07;;;;;;;;;;5063217;27;87159;-73
2023/12/18 08:34:51;;;;;;;4.93;2.40;;;;;;;;;;5060539;27;89624;-73
2023/12/18 08:37:20;;;;;;;4.97;3.00;;;;;;;;;;5057350;27;87755;-72
2023/12/18 08:39:49;;;;;;;3.63;2.70;;;;;;;;;;5055495;27;88927;-75
2023/12/18 08:42:19;;;;;;;5.33;2.53;;;;;;;;;;5058503;27;88133;-75
2023/12/18 08:44:48;;;;;;;4.67;2.37;;;;;;;;;;5058519;27;89703;-74
2023/12/18 08:47:17;;;;;;;3.10;2.43;;;;;;;;;;5058370;27;89112;-74
2023/12/18 08:49:47;;;;;;;2.97;2.57;;;;;;;;;;5060441;27;87492;-73
2023/12/18 08:52:18;;;;;;;3.67;2.60;;;;;;;;;;5060009;27;87840;-73
2023/12/18 08:54:46;;;;;;;6.23;2.93;;;;;;;;;;5058482;27;89678;-72
2023/12/18 08:57:14;;;;;;;2.93;2.43;;;;;;;;;;5059585;27;89169;-75
2023/12/18 08:59:44;;;;;;;6.67;3.60;;;;;;;;;;5059484;27;88969;-75
2023/12/18 09:02:12;;;;;;;4.43;2.77;;;;;;;;;;5060049;27;87696;-76
2023/12/18 09:04:42;;;;;;;4.70;2.97;;;;;;;;;;5057852;27;89685;-72
2023/12/18 09:07:10;;;;;;;5.37;3.57;;;;;;;;;;5059061;27;89089;-72
2023/12/18 09:09:43;;;;;;;4.88;3.80;;;;;;;;;;5056907;27;88954;-70
2023/12/18 09:12:12;;;;;;;3.23;2.80;;;;;;;;;;5058249;27;88019;-69
2023/12/18 09:14:41;;;;;;;6.63;2.93;;;;;;;;;;5057954;27;89796;-73
2023/12/18 09:17:11;;;;;;;5.83;3.57;;;;;;;;;;5057838;27;90010;-73
2023/12/18 09:19:39;;;;;;;4.33;2.63;;;;;;;;;;5060442;27;89858;-75
2023/12/18 09:22:07;;;;;;;3.20;2.40;;;;;;;;;;5060215;27;87509;-70
2023/12/18 09:24:36;;;;;;;5.83;3.23;;;;;;;;;;5059086;27;89691;-73
2023/12/18 09:27:04;;;;;;;6.70;3.60;;;;;;;;;;5059905;27;89219;-76
2023/12/18 09:29:33;;;;;;;3.77;2.37;;;;;;;;;;5055842;27;89285;-75
2023/12/18 09:32:02;;;;;;;4.97;2.80;;;;;;;;;;5058288;27;87597;-71
2023/12/18 09:34:32;;;;;;;7.20;3.43;;;;;;;;;;5057992;27;89614;-72
2023/12/18 09:37:00;;;;;;;7.53;4.50;;;;;;;;;;5059681;27;88985;-72
2023/12/18 09:39:29;;;;;;;6.77;4.50;;;;;;;;;;5057038;27;89370;-72
2023/12/18 09:42:01;;;;;;;5.80;4.27;;;;;;;;;;5058211;27;88034;-72
2023/12/18 09:44:31;;;;;;;8.90;4.43;;;;;;;;;;5059109;27;89935;-72
2023/12/18 09:47:00;;;;;;;7.80;4.40;;;;;;;;;;5058135;27;88979;-72
2023/12/18 09:49:29;;;;;;;7.03;4.20;;;;;;;;;;5059848;27;88956;-72
2023/12/18 09:52:01;;;;;;;9.13;5.00;;;;;;;;;;5059654;27;87733;-72
2023/12/18 09:54:30;;;;;;;9.07;5.23;;;;;;;;;;5059347;27;90027;-72
2023/12/18 09:56:59;;;;;;;6.03;4.00;;;;;;;;;;5055802;27;89082;-73
2023/12/18 09:59:27;;;;;;;6.50;4.67;;;;;;;;;;5058803;27;88971;-74
2023/12/18 10:01:55;;;;;;;7.97;4.10;;;;;;;;;;5058533;27;87690;-74
2023/12/18 10:04:24;;;;;;;7.63;4.23;;;;;;;;;;5060050;27;89751;-74
2023/12/18 10:06:54;;;;;;;8.10;4.90;;;;;;;;;;5059835;27;90404;-74
2023/12/18 10:09:23;;;;;;;9.17;4.67;;;;;;;;;;5057926;27;89915;-74
2023/12/18 10:11:52;;;;;;;9.07;5.13;;;;;;;;;;5060436;27;87906;-75
2023/12/18 10:14:22;;;;;;;8.90;4.97;;;;;;;;;;5057961;27;89690;-74
2023/12/18 10:16:51;;;;;;;4.20;3.80;;;;;;;;;;5062191;27;89140;-73
2023/12/18 10:19:19;;;;;;;7.77;4.50;;;;;;;;;;5060479;27;88666;-74
2023/12/18 10:21:47;;;;;;;8.90;4.63;;;;;;;;;;5060327;27;87635;-74
2023/12/18 10:24:16;;;;;;;6.50;4.30;;;;;;;;;;5063745;27;89654;-73
2023/12/18 10:26:48;;;;;;;5.40;3.97;;;;;;;;;;5062632;27;89110;-73
2023/12/18 10:29:17;;;;;;;6.77;4.03;;;;;;;;;;5063373;27;87798;-74
2023/12/18 10:31:45;;;;;;;5.80;3.40;;;;;;;;;;5063753;27;88018;-74
2023/12/18 10:34:14;;;;;;;5.13;3.57;;;;;;;;;;5061537;27;89710;-73
2023/12/18 10:36:43;;;;;;;4.30;3.57;;;;;;;;;;5063687;27;89175;-74
2023/12/18 10:39:12;;;;;;;5.23;3.07;;;;;;;;;;5065450;27;88573;-74
2023/12/18 10:41:41;;;;;;;6.47;3.73;;;;;;;;;;5061463;27;87650;-74
2023/12/18 10:44:13;;;;;;;3.77;3.03;;;;;;;;;;5063166;27;89863;-74
2023/12/18 10:46:41;;;;;;;7.63;3.50;;;;;;;;;;5062520;27;89513;-73
2023/12/18 10:49:10;;;;;;;5.20;3.40;;;;;;;;;;5064863;27;88912;-74
2023/12/18 10:51:39;;;;;;;5.47;3.63;;;;;;;;;;5063062;27;88459;-74
2023/12/18 10:54:08;;;;;;;7.37;3.23;;;;;;;;;;5063654;27;89693;-73
2023/12/18 10:56:36;;;;;;;6.23;4.50;;;;;;;;;;5077910;27;89912;-74
2023/12/18 10:59:04;;;;;;;6.17;3.23;;;;;;;;;;5061344;27;90993;-73
2023/12/18 11:01:36;;;;;;;4.17;3.07;;;;;;;;;;5074546;27;87557;-73
2023/12/18 11:04:05;;;;;;;4.97;3.57;;;;;;;;;;5062518;27;89668;-73
2023/12/18 11:06:34;;;;;;;5.97;3.53;;;;;;;;;;5062112;27;89187;-73
2023/12/18 11:09:03;;;;;;;5.63;3.73;;;;;;;;;;5075290;27;91273;-73
2023/12/18 11:11:31;;;;;;;7.77;4.27;;;;;;;;;;5063762;27;87479;-73
2023/12/18 11:14:08;;;;;;;5.23;2.93;;;;;;;;;;5062686;27;89700;-73
2023/12/18 11:16:42;;;;;;;4.47;3.87;;;;;;;;;;5059146;27;88619;-73
2023/12/18 11:19:12;;;;;;;5.67;3.50;;;;;;;;;;5059907;27;88901;-74
2023/12/18 11:21:53;;;;;;;5.67;3.67;;;;;;;;;;5058667;27;87896;-73
2023/12/18 11:24:21;;;;;;;8.23;5.17;;;;;;;;;;5061771;27;88461;-74
2023/12/18 11:26:50;;;;;;;12.80;7.33;;;;;;;;;;5060916;27;89071;-74
2023/12/18 11:29:35;;;;;;;15.33;8.53;;;;;;;;;;5061803;27;87693;-74
2023/12/18 11:32:05;;;;;;;12.53;8.33;;;;;;;;;;5062121;27;87643;-74
2023/12/18 11:34:34;;;;;;;12.33;7.50;;;;;;;;;;5058209;27;89802;-75
2023/12/18 11:37:02;;;;;;;11.83;7.87;;;;;;;;;;5062272;27;89215;-75
2023/12/18 11:39:37;;;;;;;12.67;7.43;;;;;;;;;;5060830;27;88898;-73
2023/12/18 11:42:06;;;;;;;14.23;8.73;;;;;;;;;;5062456;27;87887;-75
2023/12/18 11:44:36;;;;;;;17.43;10.27;;;;;;;;;;5059113;27;89560;-73
2023/12/18 11:47:06;;;;;;;14.43;8.50;;;;;;;;;;5060340;27;90122;-74
2023/12/18 11:49:36;;;;;;;14.40;8.43;;;;;;;;;;5057583;27;89728;-74
2023/12/18 11:52:17;;;;;;;15.07;10.03;;;;;;;;;;5061809;27;87552;-72
2023/12/18 11:54:46;;;;;;;13.27;9.40;;;;;;;;;;5058225;27;89710;-75
2023/12/18 11:57:20;;;;;;;15.37;9.60;;;;;;;;;;5058856;27;89325;-75
2023/12/18 11:59:50;;;;;;;12.10;8.50;;;;;;;;;;5061258;27;88936;-73
2023/12/18 12:02:21;;;;;;;13.33;9.47;;;;;;;;;;5061503;27;89152;-69
2023/12/18 12:04:50;;;;;;;12.33;8.37;;;;;;;;;;5062001;27;89629;-73
2023/12/18 12:07:18;;;;;;;16.83;8.63;;;;;;;;;;5061712;27;89173;-69
2023/12/18 12:09:59;;;;;;;14.70;9.53;;;;;;;;;;5060984;27;88913;-71
2023/12/18 12:12:28;;;;;;;15.03;9.13;;;;;;;;;;5058799;27;87933;-71
2023/12/18 12:15:00;;;;;;;17.73;9.23;;;;;;;;;;5061557;27;89709;-70
2023/12/18 12:17:30;;;;;;;13.87;9.57;;;;;;;;;;5061286;27;89132;-68
2023/12/18 12:19:59;;;;;;;127.10;50.57;;;;;;;;;;5057630;27;88865;-68
2023/12/18 12:22:29;;;;;;;186.27;51.07;;;;;;;;;;5059131;27;88942;-66
2023/12/18 12:24:57;;;;;;;154.37;57.10;;;;;;;;;;5059740;27;89628;-67
2023/12/18 12:27:26;;;;;;;148.00;49.47;;;;;;;;;;5059762;27;88108;-67
2023/12/18 12:29:55;;;;;;;113.97;43.53;;;;;;;;;;5056971;27;89060;-72
2023/12/18 12:32:24;;;;;;;98.13;43.53;;;;;;;;;;5060213;27;87525;-68
2023/12/18 12:34:53;;;;;;;104.10;40.20;;;;;;;;;;5059977;27;89408;-73
2023/12/18 12:37:23;;;;;;;119.30;40.47;;;;;;;;;;5058266;27;90055;-70
2023/12/18 12:40:01;;;;;;;99.33;39.77;;;;;;;;;;5059483;27;88819;-72
2023/12/18 12:42:31;;;;;;;84.13;34.07;;;;;;;;;;5057238;27;87586;-70
2023/12/18 12:45:04;;;;;;;103.87;33.37;;;;;;;;;;5060065;27;89722;-69
2023/12/18 12:47:33;;;;;;;82.77;30.17;;;;;;;;;;5058377;27;89194;-69
2023/12/18 12:50:05;;;;;;;60.67;28.93;;;;;;;;;;5059948;27;88924;-70
2023/12/18 12:52:34;;;;;;;63.33;28.53;;;;;;;;;;5060421;27;87560;-69
2023/12/18 12:55:02;;;;;;;55.73;27.17;;;;;;;;;;5059470;27;88488;-69
2023/12/18 12:57:32;;;;;;;63.57;26.60;;;;;;;;;;5059836;27;89106;-69
2023/12/18 13:00:00;;;;;;;57.20;25.23;;;;;;;;;;5059178;27;89038;-69
2023/12/18 13:02:28;;;;;;;59.77;25.20;;;;;;;;;;5057388;27;87989;-69
2023/12/18 13:04:57;;;;;;;54.60;24.87;;;;;;;;;;5060116;27;88476;-70
2023/12/18 13:07:27;;;;;;;47.43;22.47;;;;;;;;;;5059512;27;89171;-68
2023/12/18 13:09:55;;;;;;;52.37;21.30;;;;;;;;;;5059443;27;88936;-69
2023/12/18 13:12:24;;;;;;;49.97;19.40;;;;;;;;;;5055316;27;87602;-70
2023/12/18 13:14:53;;;;;;;51.43;20.60;;;;;;;;;;5059822;27;89302;-70
2023/12/18 13:17:21;;;;;;;37.03;19.33;;;;;;;;;;5059924;27;88809;-70
2023/12/18 13:19:49;;;;;;;45.47;18.57;;;;;;;;;;5061568;27;88957;-70
2023/12/18 13:22:18;;;;;;;45.87;19.17;;;;;;;;;;5059837;27;87678;-70
2023/12/18 13:24:48;;;;;;;47.63;18.60;;;;;;;;;;5059405;27;89715;-70
2023/12/18 13:27:17;;;;;;;40.00;19.33;;;;;;;;;;5058296;27;90151;-73
2023/12/18 13:29:46;;;;;;;35.07;15.27;;;;;;;;;;5059123;27;89901;-71
2023/12/18 13:32:15;;;;;;;38.20;17.90;;;;;;;;;;5059117;27;87492;-71
2023/12/18 13:34:44;;;;;;;36.43;15.97;;;;;;;;;;5054198;27;89374;-71
2023/12/18 13:37:13;;;;;;;26.97;15.07;;;;;;;;;;5056445;27;89001;-69
2023/12/18 13:39:42;;;;;;;29.63;15.53;;;;;;;;;;5066181;27;89165;-70
2023/12/18 13:42:14;;;;;;;27.13;15.17;;;;;;;;;;5054988;27;87478;-70
2023/12/18 13:44:43;;;;;;;25.57;12.80;;;;;;;;;;5068996;27;89684;-71
2023/12/18 13:47:14;;;;;;;34.67;15.63;;;;;;;;;;5059969;27;89032;-69
2023/12/18 13:49:42;;;;;;;22.43;13.53;;;;;;;;;;5067645;27;88892;-70
2023/12/18 13:52:11;;;;;;;25.17;12.30;;;;;;;;;;5079172;27;87942;-71
2023/12/18 13:54:40;;;;;;;33.23;12.87;;;;;;;;;;5067547;27;89738;-71
2023/12/18 13:57:09;;;;;;;27.17;10.93;;;;;;;;;;5073965;27;88848;-71
2023/12/18 13:59:39;;;;;;;26.30;13.07;;;;;;;;;;5075506;27;92107;-70
2023/12/18 14:02:07;;;;;;;22.93;11.43;;;;;;;;;;5066384;27;87388;-70
2023/12/18 14:04:36;;;;;;;18.67;11.70;;;;;;;;;;5078105;27;89742;-70
2023/12/18 14:07:04;;;;;;;19.57;9.90;;;;;;;;;;5071269;27;89230;-71
2023/12/18 14:09:33;;;;;;;18.50;9.67;;;;;;;;;;5068409;27;87916;-71
2023/12/18 14:12:04;;;;;;;24.70;11.40;;;;;;;;;;5064218;27;87467;-70
2023/12/18 14:14:33;;;;;;;18.60;10.97;;;;;;;;;;5065763;27;92285;-69
2023/12/18 14:17:03;;;;;;;28.33;9.70;;;;;;;;;;5068010;27;89977;-69
2023/12/18 14:19:31;;;;;;;28.27;10.00;;;;;;;;;;5058130;27;89678;-69
2023/12/18 14:22:00;;;;;;;13.73;8.63;;;;;;;;;;5066619;27;87471;-70
2023/12/18 14:24:28;;;;;;;20.03;8.90;;;;;;;;;;5061813;27;89688;-70
2023/12/18 14:26:56;;;;;;;15.77;7.57;;;;;;;;;;5061937;27;88664;-70
2023/12/18 14:29:25;;;;;;;17.03;8.53;;;;;;;;;;5066821;27;88212;-70
2023/12/18 14:31:53;;;;;;;15.07;8.13;;;;;;;;;;5068624;27;87407;-70
2023/12/18 14:34:23;;;;;;;12.97;7.27;;;;;;;;;;5065312;27;89678;-70
2023/12/18 14:36:52;;;;;;;14.97;8.13;;;;;;;;;;5068439;27;89191;-70
2023/12/18 14:39:21;;;;;;;15.97;7.20;;;;;;;;;;5069434;27;88838;-69
2023/12/18 14:41:51;;;;;;;13.73;7.33;;;;;;;;;;5063898;27;87973;-70
2023/12/18 14:44:19;;;;;;;11.90;7.87;;;;;;;;;;5073370;27;89689;-69
2023/12/18 14:46:47;;;;;;;15.10;6.97;;;;;;;;;;5063604;27;89118;-69